sensor_id;sensor_type;location;lat;lon;timestamp;temperature;humidity
70368;DHT22;57789;53.868;10.728;2022-07-23T00:00:17;15.60;99.90
70368;DHT22;57789;53.868;10.728;2022-07-23T00:02:43;15.50;99.90
70368;DHT22;57789;53.868;10.728;2022-07-23T00:05:09;15.60;99.90
70368;DHT22;57789;53.868;10.728;2022-07-23T00:07:35;15.50;99.90
70368;DHT22;57789;53.868;10.728;2022-07-23T00:10:01;15.50;99.90
70368;DHT22;57789;53.868;10.728;2022-07-23T00:12:27;15.50;99.90
70368;DHT22;57789;53.868;10.728;2022-07-23T00:14:53;15.50;99.90
70368;DHT22;57789;53.868;10.728;2022-07-23T00:17:19;15.50;99.90
70368;DHT22;57789;53.868;10.728;2022-07-23T00:19:44;15.60;99.90
70368;DHT22;57789;53.868;10.728;2022-07-23T00:22:10;15.60;99.90
70368;DHT22;57789;53.868;10.728;2022-07-23T00:24:36;15.60;99.90
70368;DHT22;57789;53.868;10.728;2022-07-23T00:27:01;15.60;99.90
70368;DHT22;57789;53.868;10.728;2022-07-23T00:29:27;15.60;99.90
70368;DHT22;57789;53.868;10.728;2022-07-23T00:31:52;15.60;99.90
70368;DHT22;57789;53.868;10.728;2022-07-23T00:34:18;15.60;99.90
70368;DHT22;57789;53.868;10.728;2022-07-23T00:36:44;15.50;99.90
70368;DHT22;57789;53.868;10.728;2022-07-23T00:39:09;15.60;99.90
70368;DHT22;57789;53.868;10.728;2022-07-23T00:41:35;15.60;99.90
70368;DHT22;57789;53.868;10.728;2022-07-23T00:44:25;15.50;99.90
70368;DHT22;57789;53.868;10.728;2022-07-23T00:46:57;15.50;99.90
70368;DHT22;57789;53.868;10.728;2022-07-23T00:49:28;15.50;99.90
70368;DHT22;57789;53.868;10.728;2022-07-23T00:51:54;15.50;99.90
70368;DHT22;57789;53.868;10.728;2022-07-23T00:54:22;15.60;99.90
70368;DHT22;57789;53.868;10.728;2022-07-23T00:56:48;15.70;99.90
70368;DHT22;57789;53.868;10.728;2022-07-23T00:59:14;15.60;99.90
70368;DHT22;57789;53.868;10.728;2022-07-23T01:01:40;15.50;99.90
70368;DHT22;57789;53.868;10.728;2022-07-23T01:04:07;15.50;99.90
70368;DHT22;57789;53.868;10.728;2022-07-23T01:06:37;15.30;99.90
70368;DHT22;57789;53.868;10.728;2022-07-23T01:09:05;15.30;99.90
70368;DHT22;57789;53.868;10.728;2022-07-23T01:11:33;15.20;99.90
70368;DHT22;57789;53.868;10.728;2022-07-23T01:13:59;15.20;99.90
70368;DHT22;57789;53.868;10.728;2022-07-23T01:16:24;15.20;99.90
70368;DHT22;57789;53.868;10.728;2022-07-23T01:18:50;15.10;99.90
70368;DHT22;57789;53.868;10.728;2022-07-23T01:21:18;15.10;99.90
70368;DHT22;57789;53.868;10.728;2022-07-23T01:23:44;15.10;99.90
70368;DHT22;57789;53.868;10.728;2022-07-23T01:26:09;15.10;99.90
70368;DHT22;57789;53.868;10.728;2022-07-23T01:28:35;15.00;99.90
70368;DHT22;57789;53.868;10.728;2022-07-23T01:31:01;15.00;99.90
70368;DHT22;57789;53.868;10.728;2022-07-23T01:33:26;15.00;99.90
70368;DHT22;57789;53.868;10.728;2022-07-23T01:35:55;15.00;99.90
70368;DHT22;57789;53.868;10.728;2022-07-23T01:38:21;15.00;99.90
70368;DHT22;57789;53.868;10.728;2022-07-23T01:40:46;15.10;99.90
70368;DHT22;57789;53.868;10.728;2022-07-23T01:43:12;15.10;99.90
70368;DHT22;57789;53.868;10.728;2022-07-23T01:45:37;15.10;99.90
70368;DHT22;57789;53.868;10.728;2022-07-23T01:48:03;15.10;99.90
70368;DHT22;57789;53.868;10.728;2022-07-23T01:50:29;15.20;99.90
70368;DHT22;57789;53.868;10.728;2022-07-23T01:52:55;15.10;99.90
70368;DHT22;57789;53.868;10.728;2022-07-23T01:55:20;15.10;99.90
70368;DHT22;57789;53.868;10.728;2022-07-23T01:57:46;15.20;99.90
70368;DHT22;57789;53.868;10.728;2022-07-23T02:00:12;15.20;99.90
70368;DHT22;57789;53.868;10.728;2022-07-23T02:02:38;15.20;99.90
70368;DHT22;57789;53.868;10.728;2022-07-23T02:05:03;15.10;99.90
70368;DHT22;57789;53.868;10.728;2022-07-23T02:07:29;15.10;99.90
70368;DHT22;57789;53.868;10.728;2022-07-23T02:09:55;15.10;99.90
70368;DHT22;57789;53.868;10.728;2022-07-23T02:12:20;15.10;99.90
70368;DHT22;57789;53.868;10.728;2022-07-23T02:14:46;15.10;99.90
70368;DHT22;57789;53.868;10.728;2022-07-23T02:17:12;15.20;99.90
70368;DHT22;57789;53.868;10.728;2022-07-23T02:19:37;15.20;99.90
70368;DHT22;57789;53.868;10.728;2022-07-23T02:22:03;15.20;99.90
70368;DHT22;57789;53.868;10.728;2022-07-23T02:24:28;15.20;99.90
70368;DHT22;57789;53.868;10.728;2022-07-23T02:26:54;15.20;99.90
70368;DHT22;57789;53.868;10.728;2022-07-23T02:29:20;15.10;99.90
70368;DHT22;57789;53.868;10.728;2022-07-23T02:31:45;15.10;99.90
70368;DHT22;57789;53.868;10.728;2022-07-23T02:34:11;15.10;99.90
70368;DHT22;57789;53.868;10.728;2022-07-23T02:36:38;15.10;99.90
70368;DHT22;57789;53.868;10.728;2022-07-23T02:39:04;15.00;99.90
70368;DHT22;57789;53.868;10.728;2022-07-23T02:41:30;15.00;99.90
70368;DHT22;57789;53.868;10.728;2022-07-23T02:43:56;15.00;99.90
70368;DHT22;57789;53.868;10.728;2022-07-23T02:46:21;15.00;99.90
70368;DHT22;57789;53.868;10.728;2022-07-23T02:48:47;15.00;99.90
70368;DHT22;57789;53.868;10.728;2022-07-23T02:51:13;14.90;99.90
70368;DHT22;57789;53.868;10.728;2022-07-23T02:53:38;14.90;99.90
70368;DHT22;57789;53.868;10.728;2022-07-23T02:56:04;14.90;99.90
70368;DHT22;57789;53.868;10.728;2022-07-23T02:58:30;15.00;99.90
70368;DHT22;57789;53.868;10.728;2022-07-23T03:00:55;14.90;99.90
70368;DHT22;57789;53.868;10.728;2022-07-23T03:03:21;14.90;99.90
70368;DHT22;57789;53.868;10.728;2022-07-23T03:05:47;15.00;99.90
70368;DHT22;57789;53.868;10.728;2022-07-23T03:08:13;14.90;99.90
70368;DHT22;57789;53.868;10.728;2022-07-23T03:10:39;14.90;99.90
70368;DHT22;57789;53.868;10.728;2022-07-23T03:13:04;14.90;99.90
70368;DHT22;57789;53.868;10.728;2022-07-23T03:15:30;14.90;99.90
70368;DHT22;57789;53.868;10.728;2022-07-23T03:17:56;15.00;99.90
70368;DHT22;57789;53.868;10.728;2022-07-23T03:20:21;15.00;99.90
70368;DHT22;57789;53.868;10.728;2022-07-23T03:22:47;14.90;99.90
70368;DHT22;57789;53.868;10.728;2022-07-23T03:25:12;14.90;99.90
70368;DHT22;57789;53.868;10.728;2022-07-23T03:27:38;14.90;99.90
70368;DHT22;57789;53.868;10.728;2022-07-23T03:30:04;14.80;99.90
70368;DHT22;57789;53.868;10.728;2022-07-23T03:32:30;14.80;99.90
70368;DHT22;57789;53.868;10.728;2022-07-23T03:34:56;14.90;99.90
70368;DHT22;57789;53.868;10.728;2022-07-23T03:37:22;14.90;99.90
70368;DHT22;57789;53.868;10.728;2022-07-23T03:39:48;14.80;99.90
70368;DHT22;57789;53.868;10.728;2022-07-23T03:42:14;14.80;99.90
70368;DHT22;57789;53.868;10.728;2022-07-23T03:44:39;14.70;99.90
70368;DHT22;57789;53.868;10.728;2022-07-23T03:47:06;14.70;99.90
70368;DHT22;57789;53.868;10.728;2022-07-23T03:49:32;14.70;99.90
70368;DHT22;57789;53.868;10.728;2022-07-23T03:51:58;14.70;99.90
70368;DHT22;57789;53.868;10.728;2022-07-23T03:54:24;14.70;99.90
70368;DHT22;57789;53.868;10.728;2022-07-23T03:56:49;14.80;99.90
70368;DHT22;57789;53.868;10.728;2022-07-23T03:59:15;14.70;99.90
70368;DHT22;57789;53.868;10.728;2022-07-23T04:01:41;14.70;99.90
70368;DHT22;57789;53.868;10.728;2022-07-23T04:04:07;14.80;99.90
70368;DHT22;57789;53.868;10.728;2022-07-23T04:06:34;14.70;99.90
70368;DHT22;57789;53.868;10.728;2022-07-23T04:09:00;14.70;99.90
70368;DHT22;57789;53.868;10.728;2022-07-23T04:11:25;14.70;99.90
70368;DHT22;57789;53.868;10.728;2022-07-23T04:13:51;14.70;99.90
70368;DHT22;57789;53.868;10.728;2022-07-23T04:16:17;14.80;99.90
70368;DHT22;57789;53.868;10.728;2022-07-23T04:18:43;14.80;99.90
70368;DHT22;57789;53.868;10.728;2022-07-23T04:21:11;14.90;99.90
70368;DHT22;57789;53.868;10.728;2022-07-23T04:23:37;14.90;99.90
70368;DHT22;57789;53.868;10.728;2022-07-23T04:26:03;14.90;99.90
70368;DHT22;57789;53.868;10.728;2022-07-23T04:28:28;15.10;99.90
70368;DHT22;57789;53.868;10.728;2022-07-23T04:30:56;15.10;99.90
70368;DHT22;57789;53.868;10.728;2022-07-23T04:33:22;15.10;99.90
70368;DHT22;57789;53.868;10.728;2022-07-23T04:35:48;15.10;99.90
70368;DHT22;57789;53.868;10.728;2022-07-23T04:38:14;15.10;99.90
70368;DHT22;57789;53.868;10.728;2022-07-23T04:40:40;15.20;99.90
70368;DHT22;57789;53.868;10.728;2022-07-23T04:43:05;15.30;99.90
70368;DHT22;57789;53.868;10.728;2022-07-23T04:45:31;15.40;99.90
70368;DHT22;57789;53.868;10.728;2022-07-23T04:47:57;15.40;99.90
70368;DHT22;57789;53.868;10.728;2022-07-23T04:50:22;15.40;99.90
70368;DHT22;57789;53.868;10.728;2022-07-23T04:52:58;15.30;99.90
70368;DHT22;57789;53.868;10.728;2022-07-23T04:55:46;15.30;99.90
70368;DHT22;57789;53.868;10.728;2022-07-23T04:58:12;15.30;99.90
70368;DHT22;57789;53.868;10.728;2022-07-23T05:00:37;15.40;99.90
70368;DHT22;57789;53.868;10.728;2022-07-23T05:03:06;15.40;99.90
70368;DHT22;57789;53.868;10.728;2022-07-23T05:05:32;15.40;99.90
70368;DHT22;57789;53.868;10.728;2022-07-23T05:07:57;15.50;99.90
70368;DHT22;57789;53.868;10.728;2022-07-23T05:10:23;15.50;99.90
70368;DHT22;57789;53.868;10.728;2022-07-23T05:12:49;15.60;99.90
70368;DHT22;57789;53.868;10.728;2022-07-23T05:15:14;15.70;99.90
70368;DHT22;57789;53.868;10.728;2022-07-23T05:17:40;15.60;99.90
70368;DHT22;57789;53.868;10.728;2022-07-23T05:20:06;15.50;99.90
70368;DHT22;57789;53.868;10.728;2022-07-23T05:22:32;15.50;99.90
70368;DHT22;57789;53.868;10.728;2022-07-23T05:24:58;15.50;99.90
70368;DHT22;57789;53.868;10.728;2022-07-23T05:27:24;15.50;99.90
70368;DHT22;57789;53.868;10.728;2022-07-23T05:29:49;15.40;99.90
70368;DHT22;57789;53.868;10.728;2022-07-23T05:32:15;15.40;99.90
70368;DHT22;57789;53.868;10.728;2022-07-23T05:34:40;15.30;99.90
70368;DHT22;57789;53.868;10.728;2022-07-23T05:37:06;15.30;99.90
70368;DHT22;57789;53.868;10.728;2022-07-23T05:39:32;15.30;99.90
70368;DHT22;57789;53.868;10.728;2022-07-23T05:41:57;15.20;99.90
70368;DHT22;57789;53.868;10.728;2022-07-23T05:44:26;15.20;99.90
70368;DHT22;57789;53.868;10.728;2022-07-23T05:46:52;15.20;99.90
70368;DHT22;57789;53.868;10.728;2022-07-23T05:49:18;15.20;99.90
70368;DHT22;57789;53.868;10.728;2022-07-23T05:51:44;15.20;99.90
70368;DHT22;57789;53.868;10.728;2022-07-23T05:54:10;15.20;99.90
70368;DHT22;57789;53.868;10.728;2022-07-23T05:56:36;15.30;99.90
70368;DHT22;57789;53.868;10.728;2022-07-23T05:59:02;15.40;99.90
70368;DHT22;57789;53.868;10.728;2022-07-23T06:01:27;15.50;99.90
70368;DHT22;57789;53.868;10.728;2022-07-23T06:03:53;15.60;99.90
70368;DHT22;57789;53.868;10.728;2022-07-23T06:06:19;15.70;99.90
70368;DHT22;57789;53.868;10.728;2022-07-23T06:08:44;15.40;99.90
70368;DHT22;57789;53.868;10.728;2022-07-23T06:11:10;15.30;99.90
70368;DHT22;57789;53.868;10.728;2022-07-23T06:13:36;15.40;99.90
70368;DHT22;57789;53.868;10.728;2022-07-23T06:16:02;15.40;99.90
70368;DHT22;57789;53.868;10.728;2022-07-23T06:18:28;15.40;99.90
70368;DHT22;57789;53.868;10.728;2022-07-23T06:20:54;15.50;99.90
70368;DHT22;57789;53.868;10.728;2022-07-23T06:23:20;15.50;99.90
70368;DHT22;57789;53.868;10.728;2022-07-23T06:25:46;15.50;99.90
70368;DHT22;57789;53.868;10.728;2022-07-23T06:28:11;15.40;99.90
70368;DHT22;57789;53.868;10.728;2022-07-23T06:30:37;15.30;99.90
70368;DHT22;57789;53.868;10.728;2022-07-23T06:33:03;15.30;99.90
70368;DHT22;57789;53.868;10.728;2022-07-23T06:35:29;15.20;99.90
70368;DHT22;57789;53.868;10.728;2022-07-23T06:37:54;15.20;99.90
70368;DHT22;57789;53.868;10.728;2022-07-23T06:40:20;15.20;99.90
70368;DHT22;57789;53.868;10.728;2022-07-23T06:42:46;15.20;99.90
70368;DHT22;57789;53.868;10.728;2022-07-23T06:45:12;15.40;99.90
70368;DHT22;57789;53.868;10.728;2022-07-23T06:47:38;15.50;99.90
70368;DHT22;57789;53.868;10.728;2022-07-23T06:50:05;15.60;99.90
70368;DHT22;57789;53.868;10.728;2022-07-23T06:52:31;15.60;99.90
70368;DHT22;57789;53.868;10.728;2022-07-23T06:54:57;15.70;99.90
70368;DHT22;57789;53.868;10.728;2022-07-23T06:57:22;15.80;99.90
70368;DHT22;57789;53.868;10.728;2022-07-23T06:59:51;15.80;99.90
70368;DHT22;57789;53.868;10.728;2022-07-23T07:02:16;15.80;99.90
70368;DHT22;57789;53.868;10.728;2022-07-23T07:04:42;15.60;99.90
70368;DHT22;57789;53.868;10.728;2022-07-23T07:07:08;15.60;99.90
70368;DHT22;57789;53.868;10.728;2022-07-23T07:09:34;15.50;99.90
70368;DHT22;57789;53.868;10.728;2022-07-23T07:12:00;15.30;99.90
70368;DHT22;57789;53.868;10.728;2022-07-23T07:14:26;15.30;99.90
70368;DHT22;57789;53.868;10.728;2022-07-23T07:16:51;15.40;99.90
70368;DHT22;57789;53.868;10.728;2022-07-23T07:19:17;15.20;99.90
70368;DHT22;57789;53.868;10.728;2022-07-23T07:21:43;15.10;99.90
70368;DHT22;57789;53.868;10.728;2022-07-23T07:24:08;15.10;99.90
70368;DHT22;57789;53.868;10.728;2022-07-23T07:26:34;15.00;99.90
70368;DHT22;57789;53.868;10.728;2022-07-23T07:29:00;14.90;99.90
70368;DHT22;57789;53.868;10.728;2022-07-23T07:31:26;14.70;99.90
70368;DHT22;57789;53.868;10.728;2022-07-23T07:33:51;14.70;99.90
70368;DHT22;57789;53.868;10.728;2022-07-23T07:36:17;14.60;99.90
70368;DHT22;57789;53.868;10.728;2022-07-23T07:38:43;14.50;99.90
70368;DHT22;57789;53.868;10.728;2022-07-23T07:41:08;14.60;99.90
70368;DHT22;57789;53.868;10.728;2022-07-23T07:43:35;14.60;99.90
70368;DHT22;57789;53.868;10.728;2022-07-23T07:46:02;14.80;99.90
70368;DHT22;57789;53.868;10.728;2022-07-23T07:48:28;14.80;99.90
70368;DHT22;57789;53.868;10.728;2022-07-23T07:50:54;14.80;99.90
70368;DHT22;57789;53.868;10.728;2022-07-23T07:53:19;14.90;99.90
70368;DHT22;57789;53.868;10.728;2022-07-23T07:55:45;15.00;99.90
70368;DHT22;57789;53.868;10.728;2022-07-23T07:58:11;15.20;99.90
70368;DHT22;57789;53.868;10.728;2022-07-23T08:00:37;15.40;99.90
70368;DHT22;57789;53.868;10.728;2022-07-23T08:03:02;15.60;99.90
70368;DHT22;57789;53.868;10.728;2022-07-23T08:05:30;15.70;99.90
70368;DHT22;57789;53.868;10.728;2022-07-23T08:07:56;16.00;99.90
70368;DHT22;57789;53.868;10.728;2022-07-23T08:10:23;15.90;99.90
70368;DHT22;57789;53.868;10.728;2022-07-23T08:12:53;15.90;99.90
70368;DHT22;57789;53.868;10.728;2022-07-23T08:15:22;16.10;99.90
70368;DHT22;57789;53.868;10.728;2022-07-23T08:17:48;16.30;99.90
70368;DHT22;57789;53.868;10.728;2022-07-23T08:20:15;16.50;99.90
70368;DHT22;57789;53.868;10.728;2022-07-23T08:25:15;16.60;99.90
70368;DHT22;57789;53.868;10.728;2022-07-23T08:27:41;16.60;99.90
70368;DHT22;57789;53.868;10.728;2022-07-23T08:30:07;16.60;99.90
70368;DHT22;57789;53.868;10.728;2022-07-23T08:32:33;16.70;99.90
70368;DHT22;57789;53.868;10.728;2022-07-23T08:35:12;16.80;99.90
70368;DHT22;57789;53.868;10.728;2022-07-23T08:37:38;17.00;99.90
70368;DHT22;57789;53.868;10.728;2022-07-23T08:40:03;17.10;99.90
70368;DHT22;57789;53.868;10.728;2022-07-23T08:42:30;17.30;99.90
70368;DHT22;57789;53.868;10.728;2022-07-23T08:44:56;17.40;99.90
70368;DHT22;57789;53.868;10.728;2022-07-23T08:47:22;17.40;99.90
70368;DHT22;57789;53.868;10.728;2022-07-23T08:49:48;17.40;99.90
70368;DHT22;57789;53.868;10.728;2022-07-23T08:52:16;17.30;99.90
70368;DHT22;57789;53.868;10.728;2022-07-23T08:54:42;17.40;99.90
70368;DHT22;57789;53.868;10.728;2022-07-23T08:57:08;17.60;99.90
70368;DHT22;57789;53.868;10.728;2022-07-23T08:59:34;17.90;99.90
70368;DHT22;57789;53.868;10.728;2022-07-23T09:01:59;17.90;99.90
70368;DHT22;57789;53.868;10.728;2022-07-23T09:04:26;18.00;99.90
70368;DHT22;57789;53.868;10.728;2022-07-23T09:06:51;18.20;99.90
70368;DHT22;57789;53.868;10.728;2022-07-23T09:09:19;18.30;99.90
70368;DHT22;57789;53.868;10.728;2022-07-23T09:11:48;18.20;99.90
70368;DHT22;57789;53.868;10.728;2022-07-23T09:17:12;18.30;99.90
70368;DHT22;57789;53.868;10.728;2022-07-23T09:19:39;18.20;99.90
70368;DHT22;57789;53.868;10.728;2022-07-23T09:22:27;18.30;99.90
70368;DHT22;57789;53.868;10.728;2022-07-23T09:25:14;18.30;99.90
70368;DHT22;57789;53.868;10.728;2022-07-23T09:30:13;18.00;99.90
70368;DHT22;57789;53.868;10.728;2022-07-23T09:32:40;17.90;99.90
70368;DHT22;57789;53.868;10.728;2022-07-23T09:35:06;17.80;99.90
70368;DHT22;57789;53.868;10.728;2022-07-23T09:37:32;17.70;99.90
70368;DHT22;57789;53.868;10.728;2022-07-23T09:40:09;18.00;99.90
70368;DHT22;57789;53.868;10.728;2022-07-23T09:42:37;18.20;99.90
70368;DHT22;57789;53.868;10.728;2022-07-23T09:45:03;18.30;99.90
70368;DHT22;57789;53.868;10.728;2022-07-23T09:47:31;18.60;99.90
70368;DHT22;57789;53.868;10.728;2022-07-23T09:50:08;19.00;99.90
70368;DHT22;57789;53.868;10.728;2022-07-23T09:52:42;19.00;99.90
70368;DHT22;57789;53.868;10.728;2022-07-23T09:55:08;18.90;99.90
70368;DHT22;57789;53.868;10.728;2022-07-23T09:57:34;18.80;99.90
70368;DHT22;57789;53.868;10.728;2022-07-23T10:00:03;18.60;99.90
70368;DHT22;57789;53.868;10.728;2022-07-23T10:02:31;18.30;99.90
70368;DHT22;57789;53.868;10.728;2022-07-23T10:04:58;18.30;99.90
70368;DHT22;57789;53.868;10.728;2022-07-23T10:07:26;18.30;99.90
70368;DHT22;57789;53.868;10.728;2022-07-23T10:09:52;18.30;99.90
70368;DHT22;57789;53.868;10.728;2022-07-23T10:12:24;18.30;99.90
70368;DHT22;57789;53.868;10.728;2022-07-23T10:15:09;18.30;99.90
70368;DHT22;57789;53.868;10.728;2022-07-23T10:17:35;18.30;99.90
70368;DHT22;57789;53.868;10.728;2022-07-23T10:20:02;18.20;99.90
70368;DHT22;57789;53.868;10.728;2022-07-23T10:22:38;18.20;99.90
70368;DHT22;57789;53.868;10.728;2022-07-23T10:28:21;18.90;99.90
70368;DHT22;57789;53.868;10.728;2022-07-23T10:31:02;19.20;99.90
70368;DHT22;57789;53.868;10.728;2022-07-23T10:33:59;19.30;99.90
70368;DHT22;57789;53.868;10.728;2022-07-23T10:36:38;19.30;99.90
70368;DHT22;57789;53.868;10.728;2022-07-23T10:39:08;19.30;99.90
70368;DHT22;57789;53.868;10.728;2022-07-23T10:41:41;19.30;99.90
70368;DHT22;57789;53.868;10.728;2022-07-23T10:44:13;19.00;99.90
70368;DHT22;57789;53.868;10.728;2022-07-23T10:47:02;18.70;99.90
70368;DHT22;57789;53.868;10.728;2022-07-23T10:49:46;18.30;99.90
70368;DHT22;57789;53.868;10.728;2022-07-23T10:52:19;18.00;99.90
70368;DHT22;57789;53.868;10.728;2022-07-23T10:57:46;17.70;99.90
70368;DHT22;57789;53.868;10.728;2022-07-23T11:02:35;17.40;99.90
70368;DHT22;57789;53.868;10.728;2022-07-23T11:05:05;17.30;99.90
70368;DHT22;57789;53.868;10.728;2022-07-23T11:07:31;17.30;99.90
70368;DHT22;57789;53.868;10.728;2022-07-23T11:09:57;17.30;99.90
70368;DHT22;57789;53.868;10.728;2022-07-23T11:15:13;17.40;99.90
70368;DHT22;57789;53.868;10.728;2022-07-23T11:25:09;17.50;99.90
70368;DHT22;57789;53.868;10.728;2022-07-23T11:27:45;17.50;99.90
70368;DHT22;57789;53.868;10.728;2022-07-23T11:35:38;17.70;99.90
70368;DHT22;57789;53.868;10.728;2022-07-23T11:38:19;17.80;99.90
70368;DHT22;57789;53.868;10.728;2022-07-23T11:40:50;18.00;99.90
70368;DHT22;57789;53.868;10.728;2022-07-23T11:43:17;18.20;99.90
70368;DHT22;57789;53.868;10.728;2022-07-23T11:45:53;18.50;99.90
70368;DHT22;57789;53.868;10.728;2022-07-23T11:48:27;18.70;99.90
70368;DHT22;57789;53.868;10.728;2022-07-23T11:50:53;18.60;99.90
70368;DHT22;57789;53.868;10.728;2022-07-23T11:53:30;19.10;99.90
70368;DHT22;57789;53.868;10.728;2022-07-23T11:56:07;19.10;99.90
70368;DHT22;57789;53.868;10.728;2022-07-23T11:58:38;19.20;99.90
70368;DHT22;57789;53.868;10.728;2022-07-23T12:01:04;19.50;99.90
70368;DHT22;57789;53.868;10.728;2022-07-23T12:03:30;19.70;99.90
70368;DHT22;57789;53.868;10.728;2022-07-23T12:05:58;19.80;99.90
70368;DHT22;57789;53.868;10.728;2022-07-23T12:08:24;19.80;99.90
70368;DHT22;57789;53.868;10.728;2022-07-23T12:10:49;19.70;99.90
70368;DHT22;57789;53.868;10.728;2022-07-23T12:13:17;19.60;99.90
70368;DHT22;57789;53.868;10.728;2022-07-23T12:15:46;19.40;99.90
70368;DHT22;57789;53.868;10.728;2022-07-23T12:18:17;19.40;99.90
70368;DHT22;57789;53.868;10.728;2022-07-23T12:20:47;19.30;99.90
70368;DHT22;57789;53.868;10.728;2022-07-23T12:23:16;19.30;99.90
70368;DHT22;57789;53.868;10.728;2022-07-23T12:25:44;19.50;99.90
70368;DHT22;57789;53.868;10.728;2022-07-23T12:28:13;19.50;99.90
70368;DHT22;57789;53.868;10.728;2022-07-23T12:30:43;19.50;99.90
70368;DHT22;57789;53.868;10.728;2022-07-23T12:33:11;19.50;99.90
70368;DHT22;57789;53.868;10.728;2022-07-23T12:35:45;19.60;99.90
70368;DHT22;57789;53.868;10.728;2022-07-23T12:38:16;19.60;99.90
70368;DHT22;57789;53.868;10.728;2022-07-23T12:40:56;19.50;99.90
70368;DHT22;57789;53.868;10.728;2022-07-23T12:43:52;19.40;99.90
70368;DHT22;57789;53.868;10.728;2022-07-23T12:46:19;19.20;99.90
70368;DHT22;57789;53.868;10.728;2022-07-23T12:51:21;18.60;99.90
70368;DHT22;57789;53.868;10.728;2022-07-23T12:54:05;18.50;99.90
70368;DHT22;57789;53.868;10.728;2022-07-23T12:56:34;18.60;99.90
70368;DHT22;57789;53.868;10.728;2022-07-23T12:59:07;18.80;99.90
70368;DHT22;57789;53.868;10.728;2022-07-23T13:01:39;19.40;99.90
70368;DHT22;57789;53.868;10.728;2022-07-23T13:04:17;20.10;99.90
70368;DHT22;57789;53.868;10.728;2022-07-23T13:06:48;20.60;99.90
70368;DHT22;57789;53.868;10.728;2022-07-23T13:09:18;21.10;99.90
70368;DHT22;57789;53.868;10.728;2022-07-23T13:11:45;21.70;99.90
70368;DHT22;57789;53.868;10.728;2022-07-23T13:14:12;21.40;99.90
70368;DHT22;57789;53.868;10.728;2022-07-23T13:16:39;21.10;99.90
70368;DHT22;57789;53.868;10.728;2022-07-23T13:19:06;20.30;99.90
70368;DHT22;57789;53.868;10.728;2022-07-23T13:21:32;19.90;99.90
70368;DHT22;57789;53.868;10.728;2022-07-23T13:23:58;19.70;99.90
70368;DHT22;57789;53.868;10.728;2022-07-23T13:26:25;19.50;99.90
70368;DHT22;57789;53.868;10.728;2022-07-23T13:28:51;19.30;99.90
70368;DHT22;57789;53.868;10.728;2022-07-23T13:31:17;19.20;99.90
70368;DHT22;57789;53.868;10.728;2022-07-23T13:33:43;19.10;99.90
70368;DHT22;57789;53.868;10.728;2022-07-23T13:36:08;19.00;99.90
70368;DHT22;57789;53.868;10.728;2022-07-23T13:38:34;19.10;99.90
70368;DHT22;57789;53.868;10.728;2022-07-23T13:41:00;19.30;99.90
70368;DHT22;57789;53.868;10.728;2022-07-23T13:43:28;19.50;99.90
70368;DHT22;57789;53.868;10.728;2022-07-23T13:45:54;19.70;99.90
70368;DHT22;57789;53.868;10.728;2022-07-23T13:48:21;19.50;99.90
70368;DHT22;57789;53.868;10.728;2022-07-23T13:50:49;19.30;99.90
70368;DHT22;57789;53.868;10.728;2022-07-23T13:53:17;19.20;99.90
70368;DHT22;57789;53.868;10.728;2022-07-23T13:55:44;19.30;99.90
70368;DHT22;57789;53.868;10.728;2022-07-23T13:58:11;19.20;99.90
70368;DHT22;57789;53.868;10.728;2022-07-23T14:00:41;19.30;99.90
70368;DHT22;57789;53.868;10.728;2022-07-23T14:03:07;19.40;99.90
70368;DHT22;57789;53.868;10.728;2022-07-23T14:05:33;19.70;99.90
70368;DHT22;57789;53.868;10.728;2022-07-23T14:07:58;19.80;99.90
70368;DHT22;57789;53.868;10.728;2022-07-23T14:10:25;19.90;99.90
70368;DHT22;57789;53.868;10.728;2022-07-23T14:12:52;20.00;99.90
70368;DHT22;57789;53.868;10.728;2022-07-23T14:15:18;20.30;99.90
70368;DHT22;57789;53.868;10.728;2022-07-23T14:17:45;20.30;99.90
70368;DHT22;57789;53.868;10.728;2022-07-23T14:20:12;20.10;99.90
70368;DHT22;57789;53.868;10.728;2022-07-23T14:22:38;20.10;99.90
70368;DHT22;57789;53.868;10.728;2022-07-23T14:25:05;20.00;99.90
70368;DHT22;57789;53.868;10.728;2022-07-23T14:27:31;19.90;99.90
70368;DHT22;57789;53.868;10.728;2022-07-23T14:29:58;19.70;99.90
70368;DHT22;57789;53.868;10.728;2022-07-23T14:32:26;19.60;99.90
70368;DHT22;57789;53.868;10.728;2022-07-23T14:34:52;19.20;99.90
70368;DHT22;57789;53.868;10.728;2022-07-23T14:37:18;19.10;99.90
70368;DHT22;57789;53.868;10.728;2022-07-23T14:39:45;19.00;99.90
70368;DHT22;57789;53.868;10.728;2022-07-23T14:42:11;18.90;99.90
70368;DHT22;57789;53.868;10.728;2022-07-23T14:44:37;18.90;99.90
70368;DHT22;57789;53.868;10.728;2022-07-23T14:47:04;18.80;99.90
70368;DHT22;57789;53.868;10.728;2022-07-23T14:49:31;18.70;99.90
70368;DHT22;57789;53.868;10.728;2022-07-23T14:51:57;18.50;99.90
70368;DHT22;57789;53.868;10.728;2022-07-23T14:54:23;18.50;99.90
70368;DHT22;57789;53.868;10.728;2022-07-23T14:56:52;18.60;99.90
70368;DHT22;57789;53.868;10.728;2022-07-23T14:59:18;18.70;99.90
70368;DHT22;57789;53.868;10.728;2022-07-23T15:01:46;19.00;99.90
70368;DHT22;57789;53.868;10.728;2022-07-23T15:04:12;19.30;99.90
70368;DHT22;57789;53.868;10.728;2022-07-23T15:06:38;19.40;99.90
70368;DHT22;57789;53.868;10.728;2022-07-23T15:09:04;19.60;99.90
70368;DHT22;57789;53.868;10.728;2022-07-23T15:11:30;19.90;99.90
70368;DHT22;57789;53.868;10.728;2022-07-23T15:13:59;19.90;99.90
70368;DHT22;57789;53.868;10.728;2022-07-23T15:16:25;19.50;99.90
70368;DHT22;57789;53.868;10.728;2022-07-23T15:18:51;19.50;99.90
70368;DHT22;57789;53.868;10.728;2022-07-23T15:21:16;19.30;99.90
70368;DHT22;57789;53.868;10.728;2022-07-23T15:23:42;19.10;99.90
70368;DHT22;57789;53.868;10.728;2022-07-23T15:26:08;19.00;99.90
70368;DHT22;57789;53.868;10.728;2022-07-23T15:28:34;18.80;99.90
70368;DHT22;57789;53.868;10.728;2022-07-23T15:31:01;18.60;99.90
70368;DHT22;57789;53.868;10.728;2022-07-23T15:33:27;18.50;99.90
70368;DHT22;57789;53.868;10.728;2022-07-23T15:35:53;18.40;99.90
70368;DHT22;57789;53.868;10.728;2022-07-23T15:38:21;18.30;99.90
70368;DHT22;57789;53.868;10.728;2022-07-23T15:40:47;18.40;99.90
70368;DHT22;57789;53.868;10.728;2022-07-23T15:43:13;18.60;99.90
70368;DHT22;57789;53.868;10.728;2022-07-23T15:45:39;19.00;99.90
70368;DHT22;57789;53.868;10.728;2022-07-23T15:48:05;19.40;99.90
70368;DHT22;57789;53.868;10.728;2022-07-23T15:50:31;19.70;99.90